createdAt,value
2022-08-17T00:00:39.706Z,100500.59
2022-08-17T00:03:13.681Z,100502.31
2022-08-17T00:05:46.154Z,100507.91
2022-08-17T00:08:15.362Z,100513.31
2022-08-17T00:10:46.419Z,100507.91
2022-08-17T00:13:17.396Z,100506.22
2022-08-17T00:15:47.378Z,100502.75
2022-08-17T00:19:05.801Z,100500.28
2022-08-17T00:21:10.449Z,100500.28
2022-08-17T00:23:39.635Z,100510.53
2022-08-17T00:26:35.836Z,100516.16
2022-08-17T00:29:07.853Z,100511.38
2022-08-17T00:31:37.825Z,100506.22
2022-08-17T00:34:08.784Z,100508.59
2022-08-17T00:36:36.687Z,100515.19
2022-08-17T00:39:05.010Z,100519.59
2022-08-17T00:41:35.664Z,100515.06
2022-08-17T00:44:06.511Z,100515.91
2022-08-17T00:46:39.540Z,100520.47
2022-08-17T00:49:09.996Z,100516.38
2022-08-17T00:51:43.085Z,100518.28
2022-08-17T00:54:15.148Z,100511.31
2022-08-17T00:56:46.768Z,100510.44
2022-08-17T00:59:18.697Z,100514.19
2022-08-17T01:01:50.617Z,100506.44
2022-08-17T01:04:20.976Z,100515.50
2022-08-17T01:06:50.733Z,100511.09
2022-08-17T01:09:20.198Z,100507.53
2022-08-17T01:11:52.466Z,100510.31
2022-08-17T01:14:21.564Z,100510.56
2022-08-17T01:16:52.653Z,100510.78
2022-08-17T01:19:24.373Z,100508.25
2022-08-17T01:21:57.928Z,100514.84
2022-08-17T01:24:29.346Z,100513.13
2022-08-17T01:26:57.623Z,100517.00
2022-08-17T01:29:26.822Z,100521.63
2022-08-17T01:31:57.996Z,100518.28
2022-08-17T01:34:42.694Z,100514.00
2022-08-17T01:37:12.484Z,100513.09
2022-08-17T01:39:45.207Z,100521.28
2022-08-17T01:42:20.225Z,100523.25
2022-08-17T01:44:48.127Z,100519.03
2022-08-17T01:47:16.165Z,100520.00
2022-08-17T01:49:45.561Z,100520.91
2022-08-17T01:52:13.865Z,100520.19
2022-08-17T01:54:46.121Z,100524.69
2022-08-17T01:57:14.589Z,100518.44
2022-08-17T01:59:42.817Z,100529.22
2022-08-17T02:02:11.310Z,100524.22
2022-08-17T02:04:58.015Z,100523.69
2022-08-17T02:07:27.113Z,100533.69
2022-08-17T02:09:56.875Z,100527.47
2022-08-17T02:12:39.352Z,100527.47
2022-08-17T02:15:15.125Z,100514.09
2022-08-17T02:17:44.474Z,100519.50
2022-08-17T02:20:12.572Z,100513.31
2022-08-17T02:22:42.256Z,100517.09
2022-08-17T02:25:14.718Z,100514.72
2022-08-17T02:27:43.247Z,100504.56
2022-08-17T02:30:59.851Z,100508.41
2022-08-17T02:33:04.177Z,100505.16
2022-08-17T02:35:34.054Z,100507.84
2022-08-17T02:38:02.157Z,100515.06
2022-08-17T02:40:36.011Z,100512.59
2022-08-17T02:43:05.392Z,100518.47
2022-08-17T02:45:33.411Z,100512.34
2022-08-17T02:48:01.257Z,100509.84
2022-08-17T02:50:29.509Z,100506.41
2022-08-17T02:53:01.665Z,100512.84
2022-08-17T02:55:36.301Z,100508.50
2022-08-17T02:58:04.582Z,100512.94
2022-08-17T03:00:35.541Z,100504.88
2022-08-17T03:03:05.548Z,100514.78
2022-08-17T03:05:35.492Z,100512.16
2022-08-17T03:08:04.362Z,100516.78
2022-08-17T03:10:34.093Z,100519.22
2022-08-17T03:13:02.332Z,100529.56
2022-08-17T03:15:33.625Z,100524.31
2022-08-17T03:18:03.673Z,100528.72
2022-08-17T03:20:33.585Z,100527.53
2022-08-17T03:23:02.980Z,100532.00
2022-08-17T03:25:35.286Z,100531.03
2022-08-17T03:28:03.508Z,100532.91
2022-08-17T03:30:31.789Z,100531.59
2022-08-17T03:33:03.169Z,100526.41
2022-08-17T03:35:33.998Z,100522.97
2022-08-17T03:38:02.415Z,100527.66
2022-08-17T03:40:34.626Z,100522.41
2022-08-17T03:43:23.000Z,100523.66
2022-08-17T03:46:11.091Z,100516.66
2022-08-17T03:49:14.853Z,100524.91
2022-08-17T03:52:00.002Z,100525.09
2022-08-17T03:54:45.354Z,100517.91
2022-08-17T03:57:14.009Z,100513.56
2022-08-17T03:59:45.015Z,100514.44
2022-08-17T04:02:17.431Z,100518.75
2022-08-17T04:04:45.537Z,100518.56
2022-08-17T04:07:13.669Z,100522.38
2022-08-17T04:09:42.887Z,100517.41
2022-08-17T04:12:10.881Z,100520.09
2022-08-17T04:14:53.347Z,100524.91
2022-08-17T04:17:26.830Z,100526.22
2022-08-17T04:19:55.873Z,100524.53
2022-08-17T04:22:32.479Z,100521.84
2022-08-17T04:25:03.887Z,100528.91
2022-08-17T04:27:31.778Z,100525.28
2022-08-17T04:29:59.641Z,100529.59
2022-08-17T04:33:04.631Z,100532.97
2022-08-17T04:35:20.347Z,100530.09
2022-08-17T04:37:48.434Z,100529.13
2022-08-17T04:40:34.422Z,100536.31
2022-08-17T04:43:04.747Z,100531.72
2022-08-17T04:45:32.805Z,100537.75
2022-08-17T04:48:02.631Z,100542.97
2022-08-17T04:50:30.575Z,100541.88
2022-08-17T04:52:58.917Z,100547.25
2022-08-17T04:55:27.115Z,100550.72
2022-08-17T04:57:55.500Z,100558.47
2022-08-17T05:00:25.738Z,100549.47
2022-08-17T05:02:56.017Z,100552.72
2022-08-17T05:05:28.185Z,100556.19
2022-08-17T05:07:58.587Z,100556.00
2022-08-17T05:10:28.923Z,100555.63
2022-08-17T05:13:03.359Z,100558.09
2022-08-17T05:15:33.101Z,100557.63
2022-08-17T05:18:04.384Z,100561.75
2022-08-17T05:20:34.932Z,100571.25
2022-08-17T05:23:07.045Z,100571.91
2022-08-17T05:25:37.648Z,100569.75
2022-08-17T05:28:06.792Z,100573.97
2022-08-17T05:30:36.321Z,100573.59
2022-08-17T05:33:07.831Z,100569.53
2022-08-17T05:35:39.723Z,100572.00
2022-08-17T05:38:08.342Z,100576.44
2022-08-17T05:40:36.674Z,100572.91
2022-08-17T05:43:06.873Z,100577.47
2022-08-17T05:45:54.164Z,100578.81
2022-08-17T05:48:39.190Z,100572.72
2022-08-17T05:51:25.670Z,100576.06
2022-08-17T05:54:01.869Z,100577.97
2022-08-17T05:56:52.742Z,100578.75
2022-08-17T06:01:59.306Z,100559.69
2022-08-17T06:04:42.167Z,100571.66
2022-08-17T06:07:18.951Z,100580.28
2022-08-17T06:09:55.086Z,100584.09
2022-08-17T06:12:45.745Z,100586.00
2022-08-17T06:15:24.628Z,100574.59
2022-08-17T06:17:56.506Z,100582.03
2022-08-17T06:20:28.164Z,100581.22
2022-08-17T06:23:05.946Z,100576.75
2022-08-17T06:25:40.351Z,100578.47
2022-08-17T06:28:14.745Z,100577.66
2022-08-17T06:30:59.697Z,100580.44
2022-08-17T06:33:34.133Z,100579.97
2022-08-17T06:36:16.073Z,100572.75
2022-08-17T06:38:54.376Z,100575.13
2022-08-17T06:41:27.607Z,100572.84
2022-08-17T06:44:10.284Z,100566.94
2022-08-17T06:46:42.547Z,100565.84
2022-08-17T06:49:19.809Z,100570.81
2022-08-17T06:51:52.815Z,100561.63
2022-08-17T06:54:33.149Z,100567.59
2022-08-17T06:57:14.533Z,100564.44
2022-08-17T06:59:55.684Z,100565.81
2022-08-17T07:02:52.363Z,100559.91
2022-08-17T07:05:24.215Z,100569.63
2022-08-17T07:08:04.468Z,100556.34
2022-08-17T07:10:44.452Z,100561.75
2022-08-17T07:13:38.790Z,100561.63
2022-08-17T07:16:15.010Z,100565.94
2022-08-17T07:18:43.704Z,100567.16
2022-08-17T07:21:26.194Z,100556.31
2022-08-17T07:24:07.968Z,100565.47
2022-08-17T07:26:38.861Z,100573.44
2022-08-17T07:29:07.180Z,100570.38
2022-08-17T07:31:35.160Z,100578.75
2022-08-17T07:34:07.983Z,100578.50
2022-08-17T07:36:35.903Z,100582.06
2022-08-17T07:39:05.458Z,100582.69
2022-08-17T07:41:57.810Z,100579.34
2022-08-17T07:44:27.777Z,100579.97
2022-08-17T07:47:14.200Z,100575.53
2022-08-17T07:49:46.275Z,100578.84
2022-08-17T07:52:50.752Z,100576.78
2022-08-17T07:55:28.093Z,100573.66
2022-08-17T07:57:59.038Z,100574.00
2022-08-17T08:00:31.396Z,100577.63
2022-08-17T08:03:16.552Z,100579.91
2022-08-17T08:05:54.648Z,100580.31
2022-08-17T08:08:27.998Z,100581.81
2022-08-17T08:11:05.496Z,100573.47
2022-08-17T08:13:40.400Z,100578.03
2022-08-17T08:16:27.122Z,100580.09
2022-08-17T08:18:58.132Z,100579.94
2022-08-17T08:21:47.540Z,100580.13
2022-08-17T08:24:40.168Z,100580.72
2022-08-17T08:27:21.310Z,100578.75
2022-08-17T08:29:55.480Z,100576.44
2022-08-17T08:32:36.968Z,100577.03
2022-08-17T08:35:08.709Z,100575.13
2022-08-17T08:37:46.881Z,100583.28
2022-08-17T08:40:33.396Z,100585.25
2022-08-17T08:43:12.561Z,100582.84
2022-08-17T08:45:50.894Z,100587.47
2022-08-17T08:48:58.037Z,100587.91
2022-08-17T08:51:37.767Z,100588.97
2022-08-17T08:54:13.994Z,100577.47
2022-08-17T08:57:11.888Z,100588.34
2022-08-17T08:59:44.819Z,100583.50
2022-08-17T09:02:46.662Z,100591.22
2022-08-17T09:05:25.867Z,100590.78
2022-08-17T09:08:01.738Z,100588.84
2022-08-17T09:10:40.582Z,100587.06
2022-08-17T09:13:17.910Z,100587.69
2022-08-17T09:15:49.308Z,100590.28
2022-08-17T09:19:00.337Z,100584.84
2022-08-17T09:21:19.220Z,100585.28
2022-08-17T09:23:59.775Z,100588.41
2022-08-17T09:26:32.275Z,100593.75
2022-08-17T09:29:04.374Z,100594.28
2022-08-17T09:31:35.485Z,100589.41
2022-08-17T09:34:18.505Z,100587.06
2022-08-17T09:36:52.365Z,100579.03
2022-08-17T09:39:29.262Z,100586.66
2022-08-17T09:42:03.861Z,100584.00
2022-08-17T09:44:39.140Z,100580.97
2022-08-17T09:47:12.057Z,100584.16
2022-08-17T09:49:47.368Z,100582.44
2022-08-17T09:52:20.966Z,100587.19
2022-08-17T09:54:51.828Z,100581.44
2022-08-17T09:57:35.679Z,100580.28
2022-08-17T10:00:20.101Z,100578.47
2022-08-17T10:03:16.290Z,100569.06
2022-08-17T10:05:57.100Z,100568.25
2022-08-17T10:08:34.934Z,100561.84
2022-08-17T10:11:22.403Z,100569.13
2022-08-17T10:14:36.429Z,100562.34
2022-08-17T10:17:08.330Z,100559.94
2022-08-17T10:19:43.975Z,100556.81
2022-08-17T10:22:38.344Z,100558.34
2022-08-17T10:25:42.538Z,100549.94
2022-08-17T10:28:21.469Z,100547.38
2022-08-17T10:31:10.473Z,100550.53
2022-08-17T10:33:55.342Z,100543.69
2022-08-17T10:36:29.528Z,100546.25
2022-08-17T10:39:08.936Z,100539.03
2022-08-17T10:41:42.268Z,100539.13
2022-08-17T10:44:37.066Z,100538.78
2022-08-17T10:47:11.302Z,100537.78
2022-08-17T10:49:44.189Z,100530.09
2022-08-17T10:52:45.484Z,100529.25
2022-08-17T10:55:17.966Z,100531.25
2022-08-17T10:57:47.116Z,100537.31
2022-08-17T11:00:31.771Z,100541.44
2022-08-17T11:03:00.145Z,100531.03
2022-08-17T11:05:52.226Z,100521.03
2022-08-17T11:08:57.548Z,100513.16
2022-08-17T11:12:06.909Z,100526.16
2022-08-17T11:14:47.149Z,100512.03
2022-08-17T11:17:43.317Z,100513.94
2022-08-17T11:20:28.578Z,100523.72
2022-08-17T11:23:36.004Z,100518.94
2022-08-17T11:26:18.645Z,100513.44
2022-08-17T11:28:52.652Z,100514.53
2022-08-17T11:31:38.442Z,100511.47
2022-08-17T11:34:15.100Z,100504.28
2022-08-17T11:37:02.659Z,100508.38
2022-08-17T11:39:50.225Z,100506.28
2022-08-17T11:42:31.059Z,100508.19
2022-08-17T11:45:09.461Z,100507.47
2022-08-17T11:48:26.729Z,100507.94
2022-08-17T11:51:17.217Z,100508.97
2022-08-17T11:54:32.142Z,100505.94
2022-08-17T11:57:02.427Z,100508.81
2022-08-17T11:59:58.438Z,100510.03
2022-08-17T12:02:48.271Z,100508.66
2022-08-17T12:05:33.278Z,100521.94
2022-08-17T12:08:14.776Z,100509.66
2022-08-17T12:10:54.246Z,100513.75
2022-08-17T12:13:23.686Z,100501.38
2022-08-17T12:15:59.621Z,100503.00
2022-08-17T12:18:32.177Z,100502.97
2022-08-17T12:21:28.602Z,100503.59
2022-08-17T12:24:00.812Z,100496.22
2022-08-17T12:26:32.413Z,100493.91
2022-08-17T12:29:03.203Z,100492.19
2022-08-17T12:31:37.058Z,100492.25
2022-08-17T12:34:06.531Z,100485.00
2022-08-17T12:36:35.021Z,100477.78
2022-08-17T12:39:14.441Z,100482.56
2022-08-17T12:41:51.574Z,100475.09
2022-08-17T12:44:21.527Z,100478.88
2022-08-17T12:46:53.545Z,100475.81
2022-08-17T12:49:27.425Z,100471.81
2022-08-17T12:52:03.522Z,100466.72
2022-08-17T12:54:40.167Z,100457.91
2022-08-17T12:57:13.436Z,100462.81
2022-08-17T12:59:44.322Z,100460.84
2022-08-17T13:02:22.989Z,100460.97
2022-08-17T13:04:52.318Z,100454.78
2022-08-17T13:07:36.269Z,100447.88
2022-08-17T13:10:05.442Z,100449.94
2022-08-17T13:12:35.870Z,100447.09
2022-08-17T13:15:04.656Z,100439.53
2022-08-17T13:17:36.487Z,100448.59
2022-08-17T13:20:14.725Z,100444.03
2022-08-17T13:22:44.455Z,100445.75
2022-08-17T13:25:17.844Z,100453.28
2022-08-17T13:27:48.944Z,100442.56
2022-08-17T13:30:23.744Z,100440.28
2022-08-17T13:32:53.806Z,100444.41
2022-08-17T13:35:50.102Z,100438.56
2022-08-17T13:38:40.400Z,100435.16
2022-08-17T13:41:08.854Z,100431.13
2022-08-17T13:43:50.504Z,100436.22
2022-08-17T13:46:21.890Z,100424.66
2022-08-17T13:49:00.027Z,100428.94
2022-08-17T13:51:32.266Z,100423.81
2022-08-17T13:54:19.867Z,100430.44
2022-08-17T13:56:55.634Z,100422.88
2022-08-17T13:59:53.062Z,100416.91
2022-08-17T14:02:21.129Z,100421.63
2022-08-17T14:04:50.224Z,100414.34
2022-08-17T14:07:36.978Z,100413.50
2022-08-17T14:10:12.348Z,100415.19
2022-08-17T14:12:42.222Z,100413.03
2022-08-17T14:15:11.793Z,100411.59
2022-08-17T14:17:39.640Z,100420.31
2022-08-17T14:20:10.397Z,100410.84
2022-08-17T14:22:44.150Z,100405.88
2022-08-17T14:25:13.653Z,100414.38
2022-08-17T14:27:47.138Z,100416.50
2022-08-17T14:30:22.939Z,100417.75
2022-08-17T14:32:52.010Z,100416.94
2022-08-17T14:35:22.329Z,100419.59
2022-08-17T14:37:52.268Z,100414.47
2022-08-17T14:40:24.983Z,100417.28
2022-08-17T14:42:55.014Z,100415.31
2022-08-17T14:45:31.683Z,100411.03
2022-08-17T14:48:03.881Z,100408.13
2022-08-17T14:50:32.185Z,100416.53
2022-08-17T14:53:06.109Z,100402.53
2022-08-17T14:55:34.493Z,100415.38
2022-08-17T14:58:03.863Z,100425.63
2022-08-17T15:00:32.177Z,100446.47
2022-08-17T15:03:01.348Z,100467.28
2022-08-17T15:05:31.445Z,100470.28
2022-08-17T15:07:59.560Z,100475.59
2022-08-17T15:10:29.806Z,100485.94
2022-08-17T15:12:58.413Z,100494.22
2022-08-17T15:15:27.055Z,100492.81
2022-08-17T15:17:55.262Z,100508.47
2022-08-17T15:20:26.354Z,100512.50
2022-08-17T15:22:57.059Z,100516.66
2022-08-17T15:25:27.455Z,100494.44
2022-08-17T15:27:57.006Z,100485.00
2022-08-17T15:30:26.937Z,100476.78
2022-08-17T15:32:55.846Z,100476.94
2022-08-17T15:35:27.958Z,100470.91
2022-08-17T15:38:06.228Z,100464.41
2022-08-17T15:40:40.409Z,100467.13
2022-08-17T15:43:12.772Z,100477.50
2022-08-17T15:45:41.071Z,100470.72
2022-08-17T15:48:09.485Z,100470.66
2022-08-17T15:50:37.312Z,100459.94
2022-08-17T15:53:05.736Z,100459.94
2022-08-17T15:55:34.806Z,100459.09
2022-08-17T15:58:02.637Z,100452.25
2022-08-17T16:00:34.603Z,100454.03
2022-08-17T16:04:01.348Z,100446.00
2022-08-17T16:06:04.830Z,100441.16
2022-08-17T16:08:32.678Z,100426.84
2022-08-17T16:11:00.716Z,100430.94
2022-08-17T16:13:28.990Z,100424.06
2022-08-17T16:15:58.850Z,100422.03
2022-08-17T16:18:30.772Z,100432.97
2022-08-17T16:21:19.475Z,100425.50
2022-08-17T16:23:48.032Z,100425.50
2022-08-17T16:26:15.981Z,100423.88
2022-08-17T16:28:43.844Z,100415.78
2022-08-17T16:31:14.298Z,100421.53
2022-08-17T16:33:42.414Z,100421.41
2022-08-17T16:36:31.023Z,100443.69
2022-08-17T16:38:59.363Z,100445.72
2022-08-17T16:41:45.339Z,100437.72
2022-08-17T16:44:15.326Z,100416.66
2022-08-17T16:46:45.809Z,100423.06
2022-08-17T16:49:27.610Z,100423.19
2022-08-17T16:52:02.982Z,100428.00
2022-08-17T16:54:30.932Z,100420.56
2022-08-17T16:56:59.109Z,100412.22
2022-08-17T16:59:38.715Z,100418.09
2022-08-17T17:02:11.109Z,100423.50
2022-08-17T17:04:46.366Z,100426.75
2022-08-17T17:07:28.887Z,100410.91
2022-08-17T17:09:57.156Z,100420.22
2022-08-17T17:13:00.942Z,100419.00
2022-08-17T17:15:22.097Z,100415.53
2022-08-17T17:17:52.522Z,100404.59
2022-08-17T17:20:26.334Z,100405.00
2022-08-17T17:23:05.256Z,100405.69
2022-08-17T17:25:39.595Z,100400.69
2022-08-17T17:28:15.613Z,100398.75
2022-08-17T17:30:50.955Z,100400.16
2022-08-17T17:33:22.485Z,100404.69
2022-08-17T17:35:54.595Z,100407.91
2022-08-17T17:38:29.093Z,100414.09
2022-08-17T17:41:04.393Z,100411.63
2022-08-17T17:43:39.824Z,100421.13
2022-08-17T17:46:27.504Z,100425.22
2022-08-17T17:48:59.027Z,100433.88
2022-08-17T17:52:07.626Z,100422.69
2022-08-17T17:54:36.963Z,100429.38
2022-08-17T17:57:12.449Z,100439.78
2022-08-17T17:59:49.223Z,100440.78
2022-08-17T18:02:51.956Z,100451.81
2022-08-17T18:05:48.350Z,100460.69
2022-08-17T18:08:31.905Z,100456.78
2022-08-17T18:11:08.240Z,100461.09
2022-08-17T18:13:54.191Z,100457.28
2022-08-17T18:16:23.282Z,100471.09
2022-08-17T18:18:53.497Z,100468.38
2022-08-17T18:21:27.540Z,100475.69
2022-08-17T18:23:58.077Z,100476.41
2022-08-17T18:26:42.080Z,100472.81
2022-08-17T18:29:31.195Z,100480.56
2022-08-17T18:32:31.125Z,100469.28
2022-08-17T18:35:02.804Z,100460.00
2022-08-17T18:37:40.034Z,100460.56
2022-08-17T18:40:37.615Z,100458.69
2022-08-17T18:43:13.309Z,100455.81
2022-08-17T18:45:46.680Z,100449.25
2022-08-17T18:48:28.635Z,100462.38
2022-08-17T18:50:59.857Z,100470.34
2022-08-17T18:53:36.640Z,100470.19
2022-08-17T18:56:22.680Z,100464.75
2022-08-17T18:59:11.230Z,100469.03
2022-08-17T19:01:53.555Z,100463.56
2022-08-17T19:04:34.822Z,100466.13
2022-08-17T19:07:06.138Z,100467.09
2022-08-17T19:09:39.352Z,100457.00
2022-08-17T19:12:11.203Z,100455.00
2022-08-17T19:14:39.502Z,100465.66
2022-08-17T19:17:16.858Z,100469.88
2022-08-17T19:19:51.637Z,100465.03
2022-08-17T19:22:31.081Z,100467.28
2022-08-17T19:25:11.896Z,100460.69
2022-08-17T19:27:57.793Z,100464.91
2022-08-17T19:30:27.756Z,100457.56
2022-08-17T19:32:57.699Z,100457.09
2022-08-17T19:35:31.874Z,100475.63
2022-08-17T19:38:06.266Z,100462.56
2022-08-17T19:40:59.638Z,100476.66
2022-08-17T19:43:41.590Z,100471.16
2022-08-17T19:46:18.261Z,100471.06
2022-08-17T19:48:53.446Z,100475.28
2022-08-17T19:51:31.635Z,100463.47
2022-08-17T19:54:06.918Z,100462.72
2022-08-17T19:56:45.123Z,100467.69
2022-08-17T19:59:23.586Z,100472.63
2022-08-17T20:01:57.230Z,100469.44
2022-08-17T20:04:38.119Z,100473.38
2022-08-17T20:07:11.013Z,100478.44
2022-08-17T20:09:43.630Z,100487.81
2022-08-17T20:12:17.558Z,100494.56
2022-08-17T20:14:53.231Z,100502.19
2022-08-17T20:17:23.399Z,100508.84
2022-08-17T20:19:55.376Z,100508.38
2022-08-17T20:22:30.717Z,100508.88
2022-08-17T20:25:11.425Z,100498.56
2022-08-17T20:27:52.032Z,100501.16
2022-08-17T20:30:34.582Z,100496.09
2022-08-17T20:33:03.439Z,100503.59
2022-08-17T20:35:33.283Z,100494.75
2022-08-17T20:38:09.173Z,100500.78
2022-08-17T20:40:39.967Z,100501.00
2022-08-17T20:43:47.405Z,100502.09
2022-08-17T20:46:33.001Z,100496.09
2022-08-17T20:49:16.468Z,100498.44
2022-08-17T20:52:00.557Z,100491.63
2022-08-17T20:54:44.262Z,100488.16
2022-08-17T20:57:49.037Z,100484.00
2022-08-17T21:00:42.477Z,100489.66
2022-08-17T21:03:49.968Z,100489.03
2022-08-17T21:06:23.115Z,100480.75
2022-08-17T21:08:54.820Z,100489.00
2022-08-17T21:12:02.921Z,100481.00
2022-08-17T21:14:59.664Z,100483.97
2022-08-17T21:17:42.051Z,100485.06
2022-08-17T21:20:25.298Z,100491.69
2022-08-17T21:23:08.040Z,100490.19
2022-08-17T21:26:07.853Z,100497.41
2022-08-17T21:29:01.070Z,100493.97
2022-08-17T21:31:37.434Z,100496.03
2022-08-17T21:34:28.202Z,100490.75
2022-08-17T21:36:57.683Z,100507.94
2022-08-17T21:39:34.376Z,100509.13
2022-08-17T21:42:02.664Z,100511.13
2022-08-17T21:44:34.928Z,100515.03
2022-08-17T21:47:23.594Z,100513.28
2022-08-17T21:49:51.706Z,100509.88
2022-08-17T21:52:23.314Z,100513.09
2022-08-17T21:54:54.420Z,100505.13
2022-08-17T21:57:27.347Z,100503.38
2022-08-17T21:59:58.143Z,100503.63
2022-08-17T22:02:32.810Z,100511.06
2022-08-17T22:05:02.968Z,100513.41
2022-08-17T22:07:39.668Z,100511.91
2022-08-17T22:10:27.577Z,100508.69
2022-08-17T22:13:17.066Z,100514.97
2022-08-17T22:15:47.679Z,100515.41
2022-08-17T22:18:20.899Z,100504.63
2022-08-17T22:20:53.455Z,100505.72
2022-08-17T22:23:45.142Z,100507.66
2022-08-17T22:26:15.726Z,100506.81
2022-08-17T22:28:46.643Z,100509.00
2022-08-17T22:31:16.634Z,100517.19
2022-08-17T22:33:49.340Z,100520.97
2022-08-17T22:36:29.176Z,100522.06
2022-08-17T22:38:58.723Z,100520.66
2022-08-17T22:41:41.358Z,100524.56
2022-08-17T22:44:17.189Z,100533.00
2022-08-17T22:47:25.274Z,100544.84
2022-08-17T22:49:57.502Z,100550.66
2022-08-17T22:52:33.009Z,100555.94
2022-08-17T22:55:23.793Z,100567.16
2022-08-17T22:58:10.022Z,100578.66
2022-08-17T23:00:41.313Z,100582.75
2022-08-17T23:03:14.201Z,100586.34
2022-08-17T23:05:47.271Z,100579.78
2022-08-17T23:08:20.996Z,100576.53
2022-08-17T23:10:49.411Z,100578.91
2022-08-17T23:13:17.343Z,100577.94
2022-08-17T23:15:52.586Z,100568.75
2022-08-17T23:18:20.906Z,100575.22
2022-08-17T23:20:50.191Z,100572.75
2022-08-17T23:23:23.419Z,100576.41
2022-08-17T23:25:51.721Z,100577.41
2022-08-17T23:28:19.844Z,100577.59
2022-08-17T23:30:48.425Z,100563.38
2022-08-17T23:33:21.316Z,100570.69
2022-08-17T23:35:50.600Z,100567.25
2022-08-17T23:38:18.534Z,100563.06
2022-08-17T23:40:46.507Z,100567.16
2022-08-17T23:43:25.325Z,100565.53
2022-08-17T23:45:54.936Z,100566.59
2022-08-17T23:48:35.044Z,100566.91
2022-08-17T23:51:09.822Z,100573.94
2022-08-17T23:53:42.661Z,100577.59
2022-08-17T23:56:11.702Z,100572.19
2022-08-17T23:58:43.236Z,100565.06
